^^
Saratoga-Weather Station Historical Data
Daily Summary for May 31, 2021 Units:  English    Metric   Both
Daily Weekly Monthly Yearly Custom
  High: Low: Average:
Temperature: 36.1 °F 34.3 °F 35.2 °F
Dew Point: 35.4 °F 33.1 °F 34.2 °F
Humidity: 97% 95% 96%
Wind Speed: 7mph 0mph 2mph
Wind Gust: 9mph - -
Wind- - East
Pressure: 29.6 in 29.3 in -
Precipitation: 0.34 in    
Historical Graphs
 
 
Tabular Data for May 31, 2021
Time Temperature Dew Point Pressure Wind Wind Speed Wind Gust Humidity Rainfall Rate (Hourly) solar
00:01 36.1 °F 35.1 °F 29.5 in NE 2.9 mph 6 mph 96% 0.03 in 0 W/m2
00:06 36.1 °F 35.1 °F 29.5 in SE 4 mph 4 mph 96% 0.04 in 0 W/m2
00:11 36.1 °F 35.1 °F 29.5 in East 0.9 mph 3 mph 96% 0.04 in 0 W/m2
00:16 36.1 °F 35.1 °F 29.5 in ENE 2 mph 3 mph 96% 0.04 in 0 W/m2
00:21 36.1 °F 35.1 °F 29.5 in ENE 2.9 mph 4 mph 96% 0.04 in 0 W/m2
00:26 36 °F 34.9 °F 29.5 in ESE 0.9 mph 2 mph 96% 0.03 in 0 W/m2
00:31 36 °F 34.9 °F 29.5 in NE 0.9 mph 5 mph 96% 0.02 in 0 W/m2
00:36 36 °F 34.9 °F 29.5 in East 2 mph 3 mph 96% 0.02 in 0 W/m2
00:41 36 °F 34.9 °F 29.5 in ESE 0.9 mph 3 mph 96% 0.02 in 0 W/m2
00:46 35.8 °F 34.7 °F 29.5 in ENE 2 mph 4 mph 96% 0.02 in 0 W/m2
00:51 35.8 °F 34.7 °F 29.5 in Calm   4 mph 96% 0.01 in 0 W/m2
00:56 35.6 °F 34.5 °F 29.5 in NE 4.9 mph 7 mph 96% 0.01 in 0 W/m2
01:01 35.6 °F 34.5 °F 29.5 in ENE 2.9 mph 3 mph 96% 0.01 in 0 W/m2
01:06 35.6 °F 34.5 °F 29.5 in ESE 0.9 mph 7 mph 96% 0 in 0 W/m2
01:11 35.6 °F 34.5 °F 29.5 in East 2 mph 4 mph 96% 0 in 0 W/m2
01:16 35.4 °F 34.3 °F 29.5 in East 0.9 mph 4 mph 96% 0 in 0 W/m2
01:21 35.4 °F 34.3 °F 29.5 in East 2 mph 3 mph 96% 0 in 0 W/m2
01:26 35.4 °F 34.3 °F 29.5 in ENE 2 mph 4 mph 96% 0 in 0 W/m2
01:31 35.4 °F 34.3 °F 29.5 in ESE 2 mph 3 mph 96% 0 in 0 W/m2
01:36 35.4 °F 34.3 °F 29.5 in SE 0.9 mph 3 mph 96% 0.01 in 0 W/m2
01:41 35.4 °F 34.3 °F 29.5 in NE 0.9 mph 4 mph 96% 0.01 in 0 W/m2
01:46 35.4 °F 34.3 °F 29.5 in ESE 2 mph 2 mph 96% 0.01 in 0 W/m2
01:51 35.4 °F 34.3 °F 29.5 in ESE 4 mph 4 mph 96% 0.01 in 0 W/m2
01:56 35.4 °F 34.3 °F 29.5 in East 2.9 mph 4 mph 96% 0.01 in 0 W/m2
02:01 35.4 °F 34.3 °F 29.5 in ESE 4 mph 4 mph 96% 0.01 in 0 W/m2
02:06 35.4 °F 34.3 °F 29.5 in ENE 0.9 mph 4 mph 96% 0.01 in 0 W/m2
02:11 35.4 °F 34.3 °F 29.5 in East 2 mph 4 mph 96% 0.01 in 0 W/m2
02:16 35.4 °F 34.3 °F 29.5 in ESE 2 mph 6 mph 96% 0.01 in 0 W/m2
02:21 35.4 °F 34.3 °F 29.5 in ESE 6.9 mph 7 mph 96% 0.01 in 0 W/m2
02:26 35.4 °F 34.2 °F 29.5 in East 2 mph 3 mph 95% 0.01 in 0 W/m2
02:31 35.2 °F 34 °F 29.5 in SE 2 mph 7 mph 95% 0.01 in 0 W/m2
02:36 35.2 °F 34 °F 29.5 in ENE 2 mph 4 mph 95% 0 in 0 W/m2
02:41 35.2 °F 34 °F 29.5 in ESE 2.9 mph 5 mph 95% 0 in 0 W/m2
02:46 35.2 °F 34 °F 29.5 in ENE 2 mph 8 mph 95% 0 in 0 W/m2
02:51 35.4 °F 34.2 °F 29.5 in Calm   2 mph 95% 0 in 0 W/m2
02:56 35.4 °F 34.2 °F 29.5 in East 4 mph 8 mph 95% 0 in 0 W/m2
03:01 35.4 °F 34.2 °F 29.5 in ENE 6.9 mph 9 mph 95% 0 in 0 W/m2
03:06 35.4 °F 34.2 °F 29.5 in Calm   4 mph 95% 0 in 0 W/m2
03:11 35.4 °F 34.2 °F 29.5 in ENE 2.9 mph 9 mph 95% 0 in 0 W/m2
03:16 35.2 °F 34 °F 29.5 in ENE 2.9 mph 6 mph 95% 0 in 0 W/m2
03:21 35.2 °F 34 °F 29.5 in ESE 2 mph 8 mph 95% 0 in 0 W/m2
03:26 35.2 °F 34 °F 29.5 in East 2.9 mph 7 mph 95% 0.01 in 0 W/m2
03:31 35.2 °F 34 °F 29.5 in East 2.9 mph 5 mph 95% 0.01 in 0 W/m2
03:36 35.2 °F 34 °F 29.5 in ENE 4 mph 4 mph 95% 0.01 in 0 W/m2
03:41 35.2 °F 34 °F 29.5 in ESE 0.9 mph 3 mph 95% 0.01 in 0 W/m2
03:46 35.2 °F 34 °F 29.5 in Calm   2 mph 95% 0.01 in 0 W/m2
03:51 35.2 °F 34 °F 29.5 in ESE 2 mph 7 mph 95% 0.01 in 0 W/m2
03:56 35.2 °F 34 °F 29.5 in NE 0.9 mph 5 mph 95% 0.01 in 0 W/m2
04:01 35.1 °F 33.8 °F 29.5 in ESE 2 mph 5 mph 95% 0.01 in 0 W/m2
04:06 35.1 °F 33.8 °F 29.5 in SE 2 mph 4 mph 95% 0.02 in 0 W/m2
04:11 35.1 °F 33.8 °F 29.5 in East 2 mph 9 mph 95% 0.02 in 0 W/m2
04:16 35.1 °F 33.8 °F 29.5 in ENE 2 mph 6 mph 95% 0.02 in 0 W/m2
04:21 35.1 °F 33.8 °F 29.5 in ESE 2.9 mph 7 mph 95% 0.02 in 0 W/m2
04:26 35.1 °F 33.8 °F 29.5 in East 2 mph 4 mph 95% 0.01 in 0 W/m2
04:31 35.1 °F 33.8 °F 29.5 in East 0.9 mph 4 mph 95% 0.01 in 0 W/m2
04:36 35.1 °F 33.8 °F 29.5 in East 2.9 mph 7 mph 95% 0.02 in 0 W/m2
04:42 35.1 °F 33.8 °F 29.5 in NE 2 mph 3 mph 95% 0.02 in 0 W/m2
04:47 35.1 °F 33.8 °F 29.5 in ENE 0.9 mph 5 mph 95% 0.02 in 0 W/m2
04:52 35.1 °F 33.8 °F 29.5 in ESE 0.9 mph 6 mph 95% 0.02 in 0 W/m2
04:57 35.1 °F 33.8 °F 29.5 in East 2.9 mph 3 mph 95% 0.02 in 0 W/m2
05:02 34.9 °F 33.6 °F 29.5 in Calm   2 mph 95% 0.02 in 0 W/m2
05:07 34.9 °F 33.6 °F 29.5 in ESE 0.9 mph 2 mph 95% 0.02 in 0 W/m2
05:12 35.1 °F 33.8 °F 29.5 in East 0.9 mph 3 mph 95% 0.02 in 0 W/m2
05:17 34.9 °F 33.6 °F 29.5 in NE 2.9 mph 3 mph 95% 0.02 in 0 W/m2
05:22 34.9 °F 33.6 °F 29.5 in East 2 mph 4 mph 95% 0.02 in 0 W/m2
05:27 34.9 °F 33.6 °F 29.5 in Calm   2 mph 95% 0.02 in 0 W/m2
05:32 34.9 °F 33.6 °F 29.5 in ESE 0.9 mph 4 mph 95% 0.02 in 0 W/m2
05:37 34.9 °F 33.6 °F 29.5 in East 0.9 mph 2 mph 95% 0.02 in 0 W/m2
05:42 34.9 °F 33.8 °F 29.5 in ENE 0.9 mph 2 mph 96% 0.02 in 0 W/m2
05:47 34.9 °F 33.8 °F 29.5 in ENE 0.9 mph 4 mph 96% 0.02 in 0 W/m2
05:52 34.9 °F 33.8 °F 29.5 in ESE 4 mph 7 mph 96% 0.02 in 0 W/m2
05:57 34.9 °F 33.8 °F 29.5 in East 2 mph 5 mph 96% 0.01 in 0 W/m2
06:02 34.9 °F 33.8 °F 29.5 in East 2.9 mph 4 mph 96% 0.01 in 0 W/m2
06:07 34.9 °F 33.8 °F 29.5 in East 2 mph 6 mph 96% 0.01 in 0 W/m2
06:12 34.9 °F 33.8 °F 29.5 in ESE 2.9 mph 4 mph 96% 0.01 in 0 W/m2
06:17 34.7 °F 33.6 °F 29.5 in East 2 mph 3 mph 96% 0.01 in 0 W/m2
06:22 34.9 °F 33.8 °F 29.5 in East 0.9 mph 3 mph 96% 0.02 in 0 W/m2
06:27 34.7 °F 33.6 °F 29.5 in East 0.9 mph 4 mph 96% 0.02 in 0 W/m2
06:32 34.7 °F 33.6 °F 29.5 in ESE 2 mph 5 mph 96% 0.01 in 0 W/m2
06:37 34.7 °F 33.6 °F 29.5 in East 2 mph 3 mph 96% 0.01 in 0 W/m2
06:42 34.7 °F 33.6 °F 29.5 in East 2 mph 5 mph 96% 0.01 in 0 W/m2
06:47 34.7 °F 33.6 °F 29.5 in ESE 4 mph 4 mph 96% 0.01 in 0 W/m2
06:52 34.7 °F 33.6 °F 29.5 in ENE 2 mph 7 mph 96% 0.01 in 0 W/m2
06:57 34.5 °F 33.3 °F 29.5 in Calm   4 mph 95% 0.01 in 0 W/m2
07:02 34.5 °F 33.3 °F 29.5 in ENE 0.9 mph 2 mph 95% 0.01 in 0 W/m2
07:07 34.5 °F 33.3 °F 29.5 in ENE 2.9 mph 6 mph 95% 0.01 in 0 W/m2
07:12 34.5 °F 33.3 °F 29.5 in East 2 mph 5 mph 95% 0.01 in 0 W/m2
07:17 34.3 °F 33.1 °F 29.5 in East 4 mph 8 mph 95% 0.01 in 0 W/m2
07:22 34.5 °F 33.3 °F 29.5 in East 2.9 mph 4 mph 95% 0 in 0 W/m2
07:27 34.5 °F 33.3 °F 29.5 in NE 2.9 mph 8 mph 95% 0 in 0 W/m2
07:32 34.5 °F 33.3 °F 29.5 in ESE 2 mph 4 mph 95% 0 in 0 W/m2
07:37 34.5 °F 33.3 °F 29.5 in ESE 2 mph 4 mph 95% 0 in 0 W/m2
07:42 34.5 °F 33.3 °F 29.5 in NE 2 mph 4 mph 95% 0 in 0 W/m2
07:47 34.3 °F 33.1 °F 29.5 in East 2.9 mph 6 mph 95% 0 in 0 W/m2
07:52 34.3 °F 33.1 °F 29.5 in ENE 2 mph 5 mph 95% 0 in 0 W/m2
07:57 34.3 °F 33.1 °F 29.5 in ESE 6 mph 7 mph 95% 0 in 0 W/m2
08:02 34.5 °F 33.3 °F 29.5 in Calm   3 mph 95% 0 in 0 W/m2
08:07 34.5 °F 33.3 °F 29.5 in East 2 mph 3 mph 95% 0 in 0 W/m2
08:12 34.5 °F 33.3 °F 29.5 in East 4 mph 4 mph 95% 0 in 0 W/m2
08:17 34.5 °F 33.3 °F 29.5 in East 0.9 mph 1 mph 95% 0 in 0 W/m2
08:22 34.5 °F 33.3 °F 29.5 in East 2.9 mph 3 mph 95% 0 in 0 W/m2
08:27 34.5 °F 33.3 °F 29.5 in East 2.9 mph 6 mph 95% 0 in 0 W/m2
08:32 34.5 °F 33.3 °F 29.6 in East 2 mph 8 mph 95% 0 in 0 W/m2
08:37 34.5 °F 33.3 °F 29.6 in ESE 2.9 mph 4 mph 95% 0 in 0 W/m2
08:42 34.5 °F 33.3 °F 29.6 in ENE 2 mph 3 mph 95% 0 in 5 W/m2
08:47 34.5 °F 33.3 °F 29.6 in ESE 2.9 mph 6 mph 95% 0 in 7 W/m2
08:52 34.5 °F 33.3 °F 29.6 in ESE 4 mph 6 mph 95% 0 in 9 W/m2
08:57 34.5 °F 33.3 °F 29.6 in East 2.9 mph 6 mph 95% 0 in 14 W/m2
09:02 34.5 °F 33.3 °F 29.6 in East 0.9 mph 4 mph 95% 0 in 14 W/m2
09:07 34.5 °F 33.3 °F 29.6 in ESE 2 mph 6 mph 95% 0 in 14 W/m2
09:12 34.5 °F 33.3 °F 29.6 in East 2 mph 4 mph 95% 0.01 in 14 W/m2
09:17 34.5 °F 33.3 °F 29.6 in ESE 2 mph 6 mph 95% 0.01 in 16 W/m2
09:22 34.5 °F 33.3 °F 29.6 in ENE 4.9 mph 7 mph 95% 0.01 in 18 W/m2
09:27 34.3 °F 33.1 °F 29.6 in East 4.9 mph 9 mph 95% 0.01 in 19 W/m2
09:32 34.3 °F 33.1 °F 29.6 in ESE 4.9 mph 6 mph 95% 0.01 in 21 W/m2
09:37 34.3 °F 33.1 °F 29.6 in ESE 0.9 mph 4 mph 95% 0.01 in 23 W/m2
09:42 34.3 °F 33.1 °F 29.6 in ENE 4 mph 4 mph 95% 0.01 in 25 W/m2
09:48 34.3 °F 33.1 °F 29.6 in East 2 mph 3 mph 95% 0.01 in 25 W/m2
09:53 34.3 °F 33.1 °F 29.6 in ESE 0.9 mph 3 mph 95% 0.01 in 26 W/m2
09:58 34.3 °F 33.1 °F 29.6 in East 0.9 mph 4 mph 95% 0.01 in 26 W/m2
10:03 34.3 °F 33.1 °F 29.6 in SE 2 mph 3 mph 95% 0.01 in 25 W/m2
10:08 34.3 °F 33.1 °F 29.6 in ESE 2 mph 3 mph 95% 0.01 in 30 W/m2
10:13 34.3 °F 33.1 °F 29.6 in East 2 mph 5 mph 95% 0.01 in 28 W/m2
10:18 34.3 °F 33.1 °F 29.6 in ENE 2.9 mph 7 mph 95% 0.01 in 21 W/m2
10:23 34.3 °F 33.1 °F 29.6 in East 2 mph 4 mph 95% 0.01 in 21 W/m2
10:28 34.3 °F 33.1 °F 29.6 in ENE 0.9 mph 7 mph 95% 0.01 in 30 W/m2
10:33 34.3 °F 33.1 °F 29.6 in Calm   3 mph 95% 0.01 in 26 W/m2
10:38 34.3 °F 33.1 °F 29.6 in East 0.9 mph 3 mph 95% 0.01 in 25 W/m2
10:43 34.5 °F 33.4 °F 29.6 in East 2 mph 5 mph 96% 0.01 in 39 W/m2
10:48 34.5 °F 33.4 °F 29.6 in ESE 2 mph 6 mph 96% 0.01 in 42 W/m2
10:53 34.3 °F 33.1 °F 29.6 in East 0.9 mph 5 mph 95% 0.01 in 25 W/m2
10:58 34.3 °F 33.3 °F 29.6 in ESE 2 mph 4 mph 96% 0.01 in 26 W/m2
11:03 34.3 °F 33.3 °F 29.6 in East 4 mph 4 mph 96% 0.02 in 25 W/m2
11:08 34.3 °F 33.3 °F 29.6 in SSE 2 mph 4 mph 96% 0.02 in 40 W/m2
11:13 34.5 °F 33.4 °F 29.6 in ESE 0.9 mph 6 mph 96% 0.01 in 53 W/m2
11:18 34.5 °F 33.4 °F 29.6 in ENE 2 mph 4 mph 96% 0.01 in 60 W/m2
11:23 34.3 °F 33.3 °F 29.6 in East 2 mph 4 mph 96% 0.01 in 58 W/m2
11:28 34.5 °F 33.4 °F 29.6 in ESE 2 mph 6 mph 96% 0.01 in 60 W/m2
11:33 34.5 °F 33.4 °F 29.6 in ESE 0.9 mph 3 mph 96% 0.01 in 63 W/m2
11:38 34.5 °F 33.4 °F 29.6 in ESE 2 mph 3 mph 96% 0.01 in 60 W/m2
11:43 34.5 °F 33.4 °F 29.6 in ESE 0.9 mph 3 mph 96% 0.01 in 49 W/m2
11:48 34.5 °F 33.4 °F 29.6 in ESE 0.9 mph 5 mph 96% 0.01 in 67 W/m2
11:53 34.5 °F 33.4 °F 29.6 in East 4 mph 4 mph 96% 0.01 in 70 W/m2
11:58 34.5 °F 33.4 °F 29.6 in East 2 mph 7 mph 96% 0.01 in 65 W/m2
12:03 34.5 °F 33.4 °F 29.6 in East 2.9 mph 4 mph 96% 0 in 49 W/m2
12:08 34.5 °F 33.4 °F 29.6 in NE 2 mph 6 mph 96% 0 in 56 W/m2
12:13 34.5 °F 33.4 °F 29.6 in ENE 2 mph 4 mph 96% 0 in 58 W/m2
12:18 34.5 °F 33.4 °F 29.6 in ESE 2.9 mph 6 mph 96% 0 in 54 W/m2
12:23 34.7 °F 33.6 °F 29.6 in East 2 mph 4 mph 96% 0 in 63 W/m2
12:28 34.9 °F 33.8 °F 29.5 in ENE 2 mph 4 mph 96% 0 in 62 W/m2
12:33 34.9 °F 33.8 °F 29.5 in ENE 2 mph 4 mph 96% 0 in 54 W/m2
12:38 34.9 °F 33.8 °F 29.5 in East 0.9 mph 4 mph 96% 0 in 58 W/m2
12:43 34.9 °F 33.8 °F 29.5 in Calm   5 mph 96% 0 in 76 W/m2
12:48 34.9 °F 33.8 °F 29.5 in ESE 0.9 mph 4 mph 96% 0 in 72 W/m2
12:53 35.1 °F 34 °F 29.5 in ESE 2.9 mph 4 mph 96% 0 in 65 W/m2
12:58 35.1 °F 34 °F 29.5 in ENE 4 mph 8 mph 96% 0 in 79 W/m2
13:03 35.1 °F 34 °F 29.5 in ESE 2 mph 4 mph 96% 0 in 69 W/m2
13:08 35.1 °F 34 °F 29.5 in East 2.9 mph 8 mph 96% 0 in 77 W/m2
13:13 35.1 °F 34 °F 29.5 in East 2.9 mph 6 mph 96% 0 in 67 W/m2
13:18 35.1 °F 34 °F 29.5 in ESE 2 mph 3 mph 96% 0 in 65 W/m2
13:23 35.2 °F 34.2 °F 29.5 in East 2 mph 4 mph 96% 0 in 81 W/m2
13:28 35.2 °F 34.2 °F 29.5 in East 0.9 mph 3 mph 96% 0 in 83 W/m2
13:33 35.2 °F 34.2 °F 29.5 in ENE 2.9 mph 4 mph 96% 0 in 65 W/m2
13:38 35.4 °F 34.3 °F 29.5 in ESE 2 mph 4 mph 96% 0 in 81 W/m2
13:43 35.4 °F 34.3 °F 29.5 in ENE 2 mph 4 mph 96% 0 in 72 W/m2
13:48 35.4 °F 34.3 °F 29.5 in East 2 mph 4 mph 96% 0 in 53 W/m2
13:53 35.4 °F 34.3 °F 29.5 in East 2 mph 2 mph 96% 0 in 40 W/m2
13:58 35.4 °F 34.3 °F 29.5 in Calm   3 mph 96% 0 in 46 W/m2
14:03 35.4 °F 34.3 °F 29.5 in SE 0.9 mph 3 mph 96% 0 in 56 W/m2
14:08 35.4 °F 34.3 °F 29.5 in ESE 2.9 mph 4 mph 96% 0 in 53 W/m2
14:13 35.4 °F 34.3 °F 29.5 in ESE 0.9 mph 3 mph 96% 0 in 37 W/m2
14:18 35.4 °F 34.3 °F 29.5 in ESE 2 mph 3 mph 96% 0 in 42 W/m2
14:23 35.4 °F 34.3 °F 29.5 in ESE 2.9 mph 3 mph 96% 0 in 46 W/m2
14:28 35.4 °F 34.3 °F 29.5 in East 4 mph 5 mph 96% 0 in 56 W/m2
14:33 35.4 °F 34.3 °F 29.5 in ESE 2.9 mph 4 mph 96% 0 in 42 W/m2
14:38 35.4 °F 34.3 °F 29.5 in ESE 2 mph 3 mph 96% 0.01 in 47 W/m2
14:43 35.4 °F 34.3 °F 29.5 in East 2 mph 4 mph 96% 0.01 in 53 W/m2
14:48 35.4 °F 34.3 °F 29.5 in East 0.9 mph 3 mph 96% 0.01 in 54 W/m2
14:53 35.6 °F 34.5 °F 29.5 in East 6 mph 6 mph 96% 0.01 in 54 W/m2
14:58 35.6 °F 34.5 °F 29.5 in ESE 4 mph 8 mph 96% 0.01 in 46 W/m2
15:03 35.4 °F 34.3 °F 29.5 in ESE 2 mph 6 mph 96% 0.01 in 40 W/m2
15:08 35.4 °F 34.3 °F 29.5 in East 0.9 mph 8 mph 96% 0.01 in 40 W/m2
15:13 35.4 °F 34.3 °F 29.5 in East 2 mph 4 mph 96% 0.01 in 23 W/m2
15:18 35.6 °F 34.5 °F 29.5 in East 2.9 mph 4 mph 96% 0.01 in 18 W/m2
15:23 35.6 °F 34.5 °F 29.5 in East 0.9 mph 3 mph 96% 0.01 in 18 W/m2
15:28 35.6 °F 34.5 °F 29.5 in SE 2 mph 3 mph 96% 0.01 in 21 W/m2
15:33 35.8 °F 34.7 °F 29.5 in NE 2.9 mph 7 mph 96% 0.01 in 21 W/m2
15:38 35.8 °F 34.7 °F 29.5 in East 2.9 mph 3 mph 96% 0 in 28 W/m2
15:43 35.8 °F 34.7 °F 29.5 in ESE 2.9 mph 7 mph 96% 0 in 25 W/m2
15:48 35.8 °F 34.7 °F 29.5 in East 2 mph 4 mph 96% 0 in 28 W/m2
15:53 35.8 °F 34.7 °F 29.5 in East 2 mph 7 mph 96% 0 in 26 W/m2
15:58 35.8 °F 34.7 °F 29.5 in ESE 2 mph 6 mph 96% 0 in 19 W/m2
16:03 35.6 °F 34.5 °F 29.5 in East 2.9 mph 3 mph 96% 0 in 16 W/m2
16:08 35.6 °F 34.5 °F 29.5 in East 2 mph 5 mph 96% 0 in 18 W/m2
16:13 35.6 °F 34.5 °F 29.5 in East 6.9 mph 9 mph 96% 0 in 19 W/m2
16:18 35.6 °F 34.5 °F 29.5 in East 2.9 mph 4 mph 96% 0 in 19 W/m2
16:23 35.6 °F 34.5 °F 29.5 in ESE 2 mph 7 mph 96% 0 in 16 W/m2
16:28 35.6 °F 34.5 °F 29.5 in ESE 2 mph 5 mph 96% 0 in 18 W/m2
16:33 35.6 °F 34.5 °F 29.5 in ENE 4 mph 5 mph 96% 0 in 16 W/m2
16:38 35.6 °F 34.5 °F 29.5 in East 2 mph 6 mph 96% 0 in 16 W/m2
16:43 35.6 °F 34.5 °F 29.5 in ESE 2 mph 3 mph 96% 0.01 in 19 W/m2
16:48 35.8 °F 34.7 °F 29.5 in ESE 2 mph 3 mph 96% 0.01 in 16 W/m2
16:53 35.6 °F 34.5 °F 29.5 in ESE 2 mph 3 mph 96% 0.01 in 12 W/m2
16:58 35.6 °F 34.5 °F 29.5 in East 0.9 mph 3 mph 96% 0.01 in 11 W/m2
17:03 35.8 °F 34.7 °F 29.5 in SE 2 mph 4 mph 96% 0.01 in 7 W/m2
17:08 35.6 °F 34.5 °F 29.5 in East 2 mph 4 mph 96% 0.01 in 5 W/m2
17:13 35.8 °F 35.1 °F 29.5 in ESE 0.9 mph 4 mph 97% 0.01 in 5 W/m2
17:18 35.8 °F 35.1 °F 29.5 in ESE 2 mph 3 mph 97% 0.01 in 0 W/m2
17:23 35.6 °F 34.9 °F 29.5 in East 0.9 mph 4 mph 97% 0.01 in 0 W/m2
17:28 35.8 °F 35.1 °F 29.5 in ENE 2 mph 3 mph 97% 0.01 in 0 W/m2
17:33 35.8 °F 35.1 °F 29.5 in East 2.9 mph 3 mph 97% 0.02 in 0 W/m2
17:38 35.6 °F 34.9 °F 29.5 in East 0.9 mph 3 mph 97% 0.02 in 0 W/m2
17:43 35.6 °F 34.9 °F 29.5 in East 2 mph 3 mph 97% 0.01 in 0 W/m2
17:48 35.6 °F 34.9 °F 29.5 in ENE 2 mph 3 mph 97% 0.01 in 0 W/m2
17:53 35.6 °F 34.9 °F 29.5 in East 2 mph 4 mph 97% 0.01 in 0 W/m2
17:58 35.6 °F 34.9 °F 29.5 in ESE 7 mph 7 mph 97% 0.01 in 0 W/m2
18:03 35.4 °F 34.7 °F 29.4 in SE 2 mph 5 mph 97% 0.02 in 0 W/m2
18:08 35.4 °F 34.7 °F 29.4 in East 7 mph 7 mph 97% 0.02 in 0 W/m2
18:13 35.4 °F 34.7 °F 29.4 in ESE 2 mph 3 mph 97% 0.02 in 0 W/m2
18:18 35.4 °F 34.7 °F 29.4 in East 2.9 mph 4 mph 97% 0.02 in 0 W/m2
18:23 35.4 °F 34.7 °F 29.4 in ESE 2 mph 5 mph 97% 0.02 in 0 W/m2
18:28 35.4 °F 34.7 °F 29.4 in ENE 2.9 mph 3 mph 97% 0.02 in 0 W/m2
18:33 35.4 °F 34.7 °F 29.4 in ESE 0.9 mph 2 mph 97% 0.01 in 0 W/m2
18:38 35.4 °F 34.7 °F 29.4 in Calm   2 mph 97% 0.01 in 0 W/m2
18:43 35.4 °F 34.7 °F 29.4 in ESE 2 mph 3 mph 97% 0.01 in 0 W/m2
18:48 35.4 °F 34.7 °F 29.4 in East 2.9 mph 3 mph 97% 0.01 in 0 W/m2
18:53 35.4 °F 34.7 °F 29.4 in ESE 2.9 mph 3 mph 97% 0.02 in 0 W/m2
18:58 35.4 °F 34.7 °F 29.4 in East 0.9 mph 4 mph 97% 0.02 in 0 W/m2
19:03 35.4 °F 34.7 °F 29.4 in ENE 0.9 mph 2 mph 97% 0.01 in 0 W/m2
19:08 35.4 °F 34.7 °F 29.4 in ENE 0.9 mph 4 mph 97% 0.01 in 0 W/m2
19:13 35.4 °F 34.7 °F 29.4 in ESE 4 mph 5 mph 97% 0.01 in 0 W/m2
19:18 35.4 °F 34.7 °F 29.4 in ENE 0.9 mph 4 mph 97% 0.02 in 0 W/m2
19:23 35.4 °F 34.7 °F 29.4 in East 2 mph 5 mph 97% 0.02 in 0 W/m2
19:28 35.4 °F 34.7 °F 29.4 in ESE 0.9 mph 5 mph 97% 0.02 in 0 W/m2
19:34 35.4 °F 34.7 °F 29.4 in ESE 0.9 mph 3 mph 97% 0.02 in 0 W/m2
19:39 35.4 °F 34.7 °F 29.4 in East 2.9 mph 5 mph 97% 0.02 in 0 W/m2
19:44 35.4 °F 34.7 °F 29.4 in East 0.9 mph 3 mph 97% 0.02 in 0 W/m2
19:49 35.4 °F 34.7 °F 29.4 in ESE 0.9 mph 2 mph 97% 0.02 in 0 W/m2
19:54 35.4 °F 34.7 °F 29.4 in East 2.9 mph 4 mph 97% 0.02 in 0 W/m2
19:59 35.4 °F 34.7 °F 29.4 in ENE 2 mph 6 mph 97% 0.02 in 0 W/m2
20:04 35.4 °F 34.7 °F 29.4 in East 2.9 mph 3 mph 97% 0.02 in 0 W/m2
20:09 35.4 °F 34.7 °F 29.4 in ESE 2 mph 6 mph 97% 0.02 in 0 W/m2
20:14 35.4 °F 34.7 °F 29.4 in ENE 2.9 mph 3 mph 97% 0.02 in 0 W/m2
20:19 35.4 °F 34.7 °F 29.4 in ENE 0.9 mph 4 mph 97% 0.01 in 0 W/m2
20:24 35.4 °F 34.7 °F 29.4 in East 0.9 mph 3 mph 97% 0.02 in 0 W/m2
20:29 35.4 °F 34.7 °F 29.4 in East 2 mph 4 mph 97% 0.02 in 0 W/m2
20:34 35.6 °F 34.9 °F 29.4 in East 2.9 mph 6 mph 97% 0.02 in 0 W/m2
20:39 35.6 °F 34.9 °F 29.4 in East 2.9 mph 3 mph 97% 0.02 in 0 W/m2
20:44 35.6 °F 34.9 °F 29.4 in ESE 2 mph 3 mph 97% 0.02 in 0 W/m2
20:49 35.6 °F 34.9 °F 29.4 in ESE 2 mph 4 mph 97% 0.02 in 0 W/m2
20:54 35.6 °F 34.9 °F 29.4 in ENE 0.9 mph 2 mph 97% 0.02 in 0 W/m2
20:59 35.8 °F 35.1 °F 29.4 in East 0.9 mph 2 mph 97% 0.02 in 0 W/m2
21:04 35.6 °F 34.9 °F 29.4 in ESE 0.9 mph 2 mph 97% 0.03 in 0 W/m2
21:09 35.8 °F 35.1 °F 29.4 in ESE 0.9 mph 2 mph 97% 0.04 in 0 W/m2
21:14 35.8 °F 35.1 °F 29.4 in ESE 0.9 mph 2 mph 97% 0.04 in 0 W/m2
21:19 35.8 °F 35.1 °F 29.4 in ENE 0.9 mph 2 mph 97% 0.05 in 0 W/m2
21:24 35.8 °F 35.1 °F 29.3 in East 2 mph 3 mph 97% 0.04 in 0 W/m2
21:29 35.8 °F 35.1 °F 29.3 in ESE 0.9 mph 3 mph 97% 0.05 in 0 W/m2
21:34 35.8 °F 35.1 °F 29.3 in ESE 2 mph 6 mph 97% 0.06 in 0 W/m2
21:39 35.8 °F 35.1 °F 29.3 in East 2 mph 3 mph 97% 0.06 in 0 W/m2
21:44 35.8 °F 35.1 °F 29.3 in East 0.9 mph 6 mph 97% 0.06 in 0 W/m2
21:49 35.8 °F 35.1 °F 29.3 in ESE 2 mph 4 mph 97% 0.06 in 0 W/m2
21:54 35.8 °F 35.1 °F 29.3 in East 2 mph 2 mph 97% 0.08 in 0 W/m2
21:59 35.8 °F 35.1 °F 29.3 in East 0.9 mph 4 mph 97% 0.08 in 0 W/m2
22:04 36 °F 35.2 °F 29.3 in East 0.9 mph 4 mph 97% 0.08 in 0 W/m2
22:09 36 °F 35.2 °F 29.3 in East 0.9 mph 3 mph 97% 0.08 in 0 W/m2
22:14 36 °F 35.2 °F 29.3 in East 2 mph 2 mph 97% 0.08 in 0 W/m2
22:19 36 °F 35.2 °F 29.3 in Calm   2 mph 97% 0.08 in 0 W/m2
22:24 36 °F 35.2 °F 29.3 in East 0.9 mph 3 mph 97% 0.08 in 0 W/m2
22:29 36 °F 35.2 °F 29.3 in ENE 0.9 mph 2 mph 97% 0.08 in 0 W/m2
22:34 36 °F 35.2 °F 29.3 in ENE 0.9 mph 3 mph 97% 0.08 in 0 W/m2
22:39 36 °F 35.2 °F 29.3 in ENE 0.9 mph 2 mph 97% 0.09 in 0 W/m2
22:44 36 °F 35.2 °F 29.3 in ENE 0.9 mph 3 mph 97% 0.09 in 0 W/m2
22:49 36 °F 35.2 °F 29.3 in ENE 0.9 mph 2 mph 97% 0.08 in 0 W/m2
22:54 36 °F 35.2 °F 29.3 in Calm   3 mph 97% 0.06 in 0 W/m2
22:59 36 °F 35.2 °F 29.3 in Calm   1 mph 97% 0.06 in 0 W/m2
23:04 36 °F 35.2 °F 29.3 in ENE 0.9 mph 1 mph 97% 0.06 in 0 W/m2
23:09 36 °F 35.2 °F 29.3 in ENE 0.9 mph 2 mph 97% 0.06 in 0 W/m2
23:14 36.1 °F 35.4 °F 29.3 in ESE 2 mph 3 mph 97% 0.06 in 0 W/m2
23:19 36.1 °F 35.4 °F 29.3 in ENE 2 mph 3 mph 97% 0.05 in 0 W/m2
23:24 36 °F 35.2 °F 29.3 in Calm     97% 0.06 in 0 W/m2
23:29 36.1 °F 35.4 °F 29.3 in NE 2.9 mph 3 mph 97% 0.05 in 0 W/m2
23:34 36 °F 35.2 °F 29.3 in East 2 mph 3 mph 97% 0.05 in 0 W/m2
23:39 36 °F 35.2 °F 29.3 in ESE 2 mph 3 mph 97% 0.04 in 0 W/m2
23:44 36 °F 35.2 °F 29.3 in ENE 2 mph 3 mph 97% 0.04 in 0 W/m2
23:49 36 °F 35.2 °F 29.3 in Calm   2 mph 97% 0.04 in 0 W/m2
23:54 36 °F 35.2 °F 29.3 in East 2 mph 2 mph 97% 0.04 in 0 W/m2
23:59 36 °F 35.2 °F 29.3 in ESE 0.9 mph 2 mph 97% 0.04 in 0 W/m2
Juneau County Weather
Compliments of Weather Underground - 4 mb